createdAt,value
2022-11-01T00:00:52.945Z,33.00
2022-11-01T00:04:55.772Z,33.70
2022-11-01T00:08:57.570Z,34.50
2022-11-01T00:12:59.362Z,35.20
2022-11-01T00:17:01.195Z,36.10
2022-11-01T00:21:03.083Z,36.70
2022-11-01T00:25:05.236Z,37.60
2022-11-01T00:29:06.866Z,38.30
2022-11-01T00:33:08.836Z,39.10
2022-11-01T00:37:10.424Z,39.90
2022-11-01T00:41:12.888Z,40.60
2022-11-01T00:45:14.656Z,41.20
2022-11-01T00:49:16.223Z,44.00
2022-11-01T00:53:17.847Z,42.80
2022-11-01T00:57:19.526Z,43.80
2022-11-01T01:01:21.239Z,44.40
2022-11-01T01:05:22.907Z,45.50
2022-11-01T01:09:24.492Z,46.30
2022-11-01T01:13:26.090Z,46.80
2022-11-01T01:17:30.018Z,47.50
2022-11-01T01:21:34.561Z,48.70
2022-11-01T01:25:43.389Z,49.70
2022-11-01T01:29:45.317Z,50.80
2022-11-01T01:33:46.905Z,52.10
2022-11-01T01:37:48.518Z,53.00
2022-11-01T01:41:56.208Z,54.10
2022-11-01T01:45:57.792Z,54.90
2022-11-01T01:50:23.708Z,56.20
2022-11-01T01:54:25.313Z,57.20
2022-11-01T01:58:31.488Z,58.10
2022-11-01T02:02:33.094Z,59.20
2022-11-01T02:06:35.723Z,60.00
2022-11-01T02:10:37.509Z,60.00
2022-11-01T02:14:42.304Z,60.00
2022-11-01T02:19:01.987Z,61.90
2022-11-01T02:23:45.865Z,63.60
2022-11-01T02:28:20.258Z,65.20
2022-11-01T02:32:54.312Z,66.50
2022-11-01T02:37:10.128Z,67.90
2022-11-01T02:41:27.619Z,68.80
2022-11-01T02:45:37.086Z,69.70
2022-11-01T02:49:44.946Z,71.40
2022-11-01T02:53:46.755Z,73.10
2022-11-01T02:57:49.778Z,74.60
2022-11-01T03:02:05.846Z,75.90
2022-11-01T03:06:33.769Z,77.50
2022-11-01T03:10:50.198Z,79.00
2022-11-01T03:14:57.350Z,80.20
2022-11-01T03:19:13.289Z,81.20
2022-11-01T03:23:21.684Z,80.40
2022-11-01T03:27:41.533Z,80.90
2022-11-01T03:31:44.313Z,81.60
2022-11-01T03:35:49.565Z,82.80
2022-11-01T03:39:53.353Z,84.10
2022-11-01T03:43:55.665Z,85.50
2022-11-01T03:47:57.344Z,86.60
2022-11-01T03:51:59.544Z,87.40
2022-11-01T03:56:01.180Z,90.20
2022-11-01T04:00:02.905Z,89.00
2022-11-01T04:04:04.554Z,89.50
2022-11-01T04:08:07.750Z,90.10
2022-11-01T04:12:09.338Z,90.20
2022-11-01T04:16:29.745Z,90.30
2022-11-01T04:20:34.759Z,90.40
2022-11-01T04:24:36.331Z,90.30
2022-11-01T04:28:38.371Z,90.30
2022-11-01T04:32:44.147Z,90.40
2022-11-01T04:36:45.963Z,90.40
2022-11-01T04:40:47.578Z,90.50
2022-11-01T04:44:49.452Z,90.60
2022-11-01T04:48:51.200Z,90.60
2022-11-01T04:52:52.773Z,90.60
2022-11-01T04:56:54.489Z,90.50
2022-11-01T05:00:56.141Z,90.40
2022-11-01T05:04:57.788Z,90.10
2022-11-01T05:08:59.428Z,90.10
2022-11-01T05:13:02.301Z,90.00
2022-11-01T05:17:04.051Z,89.50
2022-11-01T05:21:05.740Z,89.10
2022-11-01T05:25:09.310Z,88.90
2022-11-01T05:29:24.469Z,89.00
2022-11-01T05:33:32.861Z,88.90
2022-11-01T05:37:35.826Z,88.60
2022-11-01T05:41:37.502Z,88.30
2022-11-01T05:45:39.072Z,88.50
2022-11-01T05:49:40.644Z,90.30
2022-11-01T05:53:42.315Z,88.20
2022-11-01T05:57:44.036Z,87.80
2022-11-01T06:01:45.798Z,87.10
2022-11-01T06:05:48.539Z,88.60
2022-11-01T06:09:50.122Z,86.00
2022-11-01T06:13:58.359Z,85.50
2022-11-01T06:18:00.533Z,85.10
2022-11-01T06:22:02.410Z,84.80
2022-11-01T06:26:05.334Z,84.30
2022-11-01T06:30:08.366Z,84.10
2022-11-01T06:34:10.141Z,83.80
2022-11-01T06:38:11.741Z,83.30
2022-11-01T06:42:13.392Z,82.90
2022-11-01T06:46:14.976Z,82.70
2022-11-01T06:50:17.026Z,82.20
2022-11-01T06:54:18.760Z,81.80
2022-11-01T06:58:20.499Z,81.60
2022-11-01T07:02:26.986Z,81.10
2022-11-01T07:06:31.272Z,80.30
2022-11-01T07:10:33.745Z,79.80
2022-11-01T07:14:35.342Z,79.30
2022-11-01T07:18:37.004Z,78.90
2022-11-01T07:22:38.567Z,78.30
2022-11-01T07:26:40.187Z,77.80
2022-11-01T07:30:42.037Z,77.50
2022-11-01T07:34:44.014Z,76.70
2022-11-01T07:43:22.213Z,77.00
2022-11-01T07:47:23.819Z,77.50
2022-11-01T07:51:25.457Z,77.70
2022-11-01T07:55:27.994Z,78.50
2022-11-01T07:59:29.911Z,79.60
2022-11-01T08:03:31.487Z,80.80
2022-11-01T08:07:38.423Z,82.80
2022-11-01T08:11:40.108Z,84.20
2022-11-01T08:15:41.740Z,84.80
2022-11-01T08:19:43.440Z,88.00
2022-11-01T08:23:45.887Z,86.70
2022-11-01T08:27:47.512Z,87.90
2022-11-01T08:31:49.256Z,88.60
2022-11-01T08:35:51.095Z,89.30
2022-11-01T08:39:52.717Z,89.80
2022-11-01T08:43:55.025Z,90.10
2022-11-01T08:48:01.333Z,90.20
2022-11-01T08:52:03.093Z,90.40
2022-11-01T08:56:04.984Z,90.70
2022-11-01T09:00:07.393Z,91.00
2022-11-01T09:04:09.228Z,91.40
2022-11-01T09:08:10.843Z,91.50
2022-11-01T09:12:14.634Z,91.50
2022-11-01T09:16:17.214Z,91.80
2022-11-01T09:20:19.231Z,93.20
2022-11-01T09:24:20.811Z,95.20
2022-11-01T09:28:22.394Z,97.00
2022-11-01T09:32:24.014Z,98.40
2022-11-01T09:36:26.481Z,99.50
2022-11-01T09:40:32.996Z,99.90
2022-11-01T09:44:39.536Z,99.90
2022-11-01T09:48:43.954Z,99.90
2022-11-01T09:52:45.640Z,99.90
2022-11-01T09:57:08.015Z,99.90
2022-11-01T10:01:42.521Z,99.90
2022-11-01T10:06:07.530Z,99.90
2022-11-01T10:10:35.691Z,99.90
2022-11-01T10:15:05.887Z,99.90
2022-11-01T10:19:18.938Z,99.90
2022-11-01T10:23:38.544Z,99.90
2022-11-01T10:27:47.084Z,99.90
2022-11-01T10:31:52.915Z,99.90
2022-11-01T10:36:05.702Z,99.90
2022-11-01T10:40:18.463Z,99.90
2022-11-01T10:44:33.051Z,99.90
2022-11-01T10:48:44.800Z,99.90
2022-11-01T10:53:03.157Z,99.90
2022-11-01T10:57:10.806Z,99.90
2022-11-01T11:01:18.895Z,99.90
2022-11-01T11:05:22.277Z,99.90
2022-11-01T11:09:38.761Z,99.90
2022-11-01T11:13:43.829Z,99.90
2022-11-01T11:17:49.872Z,99.90
2022-11-01T11:21:53.772Z,99.90
2022-11-01T11:26:07.933Z,99.90
2022-11-01T11:30:13.559Z,99.90
2022-11-01T11:34:32.098Z,99.90
2022-11-01T11:38:45.605Z,99.90
2022-11-01T11:42:49.070Z,99.90
2022-11-01T11:46:57.175Z,99.90
2022-11-01T11:51:06.078Z,99.90
2022-11-01T11:55:27.305Z,99.90
2022-11-01T11:59:31.045Z,99.90
2022-11-01T12:03:47.861Z,99.90
2022-11-01T12:07:58.515Z,99.90
2022-11-01T12:12:26.416Z,99.90
2022-11-01T12:20:39.429Z,99.90
2022-11-01T12:24:43.524Z,99.90
2022-11-01T12:28:53.529Z,99.90
2022-11-01T12:32:58.220Z,99.90
2022-11-01T12:37:29.286Z,99.90
2022-11-01T12:41:47.672Z,99.90
2022-11-01T12:46:04.726Z,99.90
2022-11-01T12:50:30.183Z,99.90
2022-11-01T12:54:39.933Z,99.90
2022-11-01T12:58:41.711Z,99.90
2022-11-01T13:03:32.928Z,99.90
2022-11-01T13:08:00.282Z,99.20
2022-11-01T13:12:15.051Z,97.30
2022-11-01T13:16:25.904Z,95.10
2022-11-01T13:20:30.223Z,93.00
2022-11-01T13:24:45.123Z,91.10
2022-11-01T13:28:58.986Z,87.60
2022-11-01T13:33:30.086Z,83.40
2022-11-01T13:37:43.603Z,79.20
2022-11-01T13:42:07.181Z,76.30
2022-11-01T13:46:29.848Z,73.40
2022-11-01T13:51:05.701Z,71.00
2022-11-01T13:55:19.353Z,70.10
2022-11-01T13:59:50.010Z,69.90
2022-11-01T14:04:21.861Z,69.80
2022-11-01T14:08:28.387Z,70.20
2022-11-01T14:12:43.287Z,70.30
2022-11-01T14:16:48.287Z,70.40
2022-11-01T14:20:52.478Z,70.10
2022-11-01T14:25:24.177Z,69.50
2022-11-01T14:29:25.805Z,68.80
2022-11-01T14:33:27.536Z,67.80
2022-11-01T14:37:38.313Z,66.60
2022-11-01T14:41:41.058Z,65.70
2022-11-01T14:45:46.688Z,64.70
2022-11-01T14:49:49.172Z,64.30
2022-11-01T14:54:00.876Z,63.70
2022-11-01T14:58:23.609Z,63.60
2022-11-01T15:02:28.090Z,63.80
2022-11-01T15:06:30.988Z,64.40
2022-11-01T15:10:42.186Z,65.50
2022-11-01T15:14:46.412Z,67.10
2022-11-01T15:18:54.744Z,68.50
2022-11-01T15:22:58.657Z,69.90
2022-11-01T15:27:35.205Z,71.50
2022-11-01T15:31:50.575Z,73.00
2022-11-01T15:36:05.229Z,74.50
2022-11-01T15:40:33.167Z,75.80
2022-11-01T15:44:34.771Z,77.40
2022-11-01T15:48:37.987Z,78.80
2022-11-01T15:52:39.689Z,80.70
2022-11-01T15:56:48.725Z,81.90
2022-11-01T16:00:59.396Z,83.60
2022-11-01T16:05:01.911Z,84.90
2022-11-01T16:09:08.881Z,86.00
2022-11-01T16:13:17.097Z,87.40
2022-11-01T16:17:22.714Z,88.40
2022-11-01T16:21:29.300Z,89.50
2022-11-01T16:25:33.787Z,90.20
2022-11-01T16:29:50.139Z,90.50
2022-11-01T16:33:52.291Z,90.90
2022-11-01T16:37:53.939Z,91.10
2022-11-01T16:41:56.315Z,90.70
2022-11-01T16:45:58.973Z,90.70
2022-11-01T16:50:00.632Z,91.10
2022-11-01T16:54:02.237Z,91.40
2022-11-01T16:58:04.296Z,91.60
2022-11-01T17:02:19.448Z,91.80
2022-11-01T17:06:21.301Z,92.20
2022-11-01T17:10:30.780Z,92.40
2022-11-01T17:14:35.183Z,92.70
2022-11-01T17:18:41.450Z,92.80
2022-11-01T17:22:43.756Z,93.00
2022-11-01T17:26:48.373Z,93.20
2022-11-01T17:30:50.789Z,93.40
2022-11-01T17:34:53.575Z,93.50
2022-11-01T17:38:55.167Z,93.60
2022-11-01T17:42:56.803Z,93.80
2022-11-01T17:46:59.402Z,93.90
2022-11-01T17:51:01.095Z,94.00
2022-11-01T17:55:02.675Z,95.20
2022-11-01T17:59:04.603Z,94.40
2022-11-01T18:03:06.270Z,94.40
2022-11-01T18:07:10.661Z,94.50
2022-11-01T18:11:38.047Z,94.60
2022-11-01T18:15:44.147Z,94.40
2022-11-01T18:20:00.143Z,94.10
2022-11-01T18:24:13.482Z,93.80
2022-11-01T18:28:30.124Z,93.70
2022-11-01T18:32:49.241Z,93.60
2022-11-01T18:37:35.556Z,93.40
2022-11-01T18:41:37.129Z,93.30
2022-11-01T18:45:52.782Z,93.20
2022-11-01T18:50:05.349Z,93.10
2022-11-01T18:54:09.691Z,93.30
2022-11-01T18:58:23.664Z,93.50
2022-11-01T19:02:28.120Z,93.60
2022-11-01T19:06:32.665Z,93.60
2022-11-01T19:10:35.239Z,93.60
2022-11-01T19:14:37.817Z,93.60
2022-11-01T19:18:43.315Z,94.00
2022-11-01T19:22:45.231Z,95.90
2022-11-01T19:26:46.880Z,94.10
2022-11-01T19:30:52.472Z,92.50
2022-11-01T19:34:55.332Z,92.20
2022-11-01T19:38:56.902Z,92.40
2022-11-01T19:43:08.966Z,92.80
2022-11-01T19:47:38.120Z,93.20
2022-11-01T19:51:39.720Z,93.60
2022-11-01T19:55:46.220Z,93.90
2022-11-01T19:59:48.038Z,94.30
2022-11-01T20:03:58.143Z,94.50
2022-11-01T20:08:12.692Z,94.70
2022-11-01T20:12:18.635Z,94.80
2022-11-01T20:16:23.184Z,94.90
2022-11-01T20:20:25.098Z,95.00
2022-11-01T20:24:30.873Z,95.10
2022-11-01T20:28:32.675Z,95.30
2022-11-01T20:32:34.299Z,95.40
2022-11-01T20:36:36.144Z,95.40
2022-11-01T20:40:37.785Z,95.50
2022-11-01T20:44:39.365Z,95.60
2022-11-01T20:48:41.031Z,95.60
2022-11-01T20:52:43.161Z,95.90
2022-11-01T20:56:44.739Z,95.20
2022-11-01T21:00:46.328Z,94.20
2022-11-01T21:04:54.882Z,93.80
2022-11-01T21:08:57.703Z,93.60
2022-11-01T21:13:00.900Z,93.40
2022-11-01T21:17:16.842Z,93.40
2022-11-01T21:21:19.795Z,93.20
2022-11-01T21:25:22.896Z,94.50
2022-11-01T21:29:28.198Z,93.50
2022-11-01T21:33:38.678Z,92.10
2022-11-01T21:37:40.639Z,91.40
2022-11-01T21:41:45.155Z,90.90
2022-11-01T21:45:46.920Z,91.50
2022-11-01T21:49:49.519Z,91.50
2022-11-01T21:53:51.103Z,91.20
2022-11-01T21:57:52.673Z,90.80
2022-11-01T22:01:55.970Z,91.80
2022-11-01T22:05:57.933Z,91.80
2022-11-01T22:09:59.804Z,90.90
2022-11-01T22:14:01.408Z,91.00
2022-11-01T22:18:03.053Z,91.30
2022-11-01T22:22:04.634Z,91.40
2022-11-01T22:26:06.441Z,91.50
2022-11-01T22:30:08.752Z,91.50
2022-11-01T22:34:10.395Z,91.60
2022-11-01T22:38:22.555Z,91.60
2022-11-01T22:42:26.261Z,91.40
2022-11-01T22:46:37.801Z,91.40
2022-11-01T22:50:39.372Z,91.30
2022-11-01T22:54:42.841Z,91.10
2022-11-01T22:58:44.494Z,91.00
2022-11-01T23:02:47.432Z,90.70
2022-11-01T23:06:50.651Z,90.60
2022-11-01T23:10:52.924Z,90.40
2022-11-01T23:14:55.411Z,90.20
2022-11-01T23:18:59.891Z,90.10
2022-11-01T23:23:01.752Z,90.20
2022-11-01T23:27:03.699Z,90.10
2022-11-01T23:31:05.680Z,90.10
2022-11-01T23:35:14.639Z,89.90
2022-11-01T23:39:16.265Z,89.90
2022-11-01T23:43:24.295Z,89.60
2022-11-01T23:47:39.621Z,89.50
2022-11-01T23:51:41.421Z,89.00
2022-11-01T23:55:49.797Z,88.90
2022-11-01T23:59:51.848Z,88.80
